sensor_id;sensor_type;location;lat;lon;timestamp;P1;durP1;ratioP1;P2;durP2;ratioP2
73421;SDS011;61637;47.760;-122.022;2024-03-02T00:00:01;1.4;;;0.7;;
73421;SDS011;61637;47.760;-122.022;2024-03-02T00:02:01;1.4;;;0.7;;
73421;SDS011;61637;47.760;-122.022;2024-03-02T00:04:04;1.1;;;0.6;;
73421;SDS011;61637;47.760;-122.022;2024-03-02T00:06:04;3.2;;;1.6;;
73421;SDS011;61637;47.760;-122.022;2024-03-02T00:08:01;3.8;;;2.3;;
73421;SDS011;61637;47.760;-122.022;2024-03-02T00:10:01;5.5;;;2.4;;
73421;SDS011;61637;47.760;-122.022;2024-03-02T00:12:01;3.5;;;1.9;;
73421;SDS011;61637;47.760;-122.022;2024-03-02T00:14:00;2.4;;;0.8;;
73421;SDS011;61637;47.760;-122.022;2024-03-02T00:16:01;1.1;;;0.5;;
73421;SDS011;61637;47.760;-122.022;2024-03-02T00:18:01;1.5;;;0.5;;
73421;SDS011;61637;47.760;-122.022;2024-03-02T00:20:01;1.4;;;0.5;;
73421;SDS011;61637;47.760;-122.022;2024-03-02T00:22:01;1.3;;;0.5;;
73421;SDS011;61637;47.760;-122.022;2024-03-02T00:24:01;1.6;;;0.4;;
73421;SDS011;61637;47.760;-122.022;2024-03-02T00:26:01;0.9;;;0.4;;
73421;SDS011;61637;47.760;-122.022;2024-03-02T00:28:00;1.5;;;0.4;;
73421;SDS011;61637;47.760;-122.022;2024-03-02T00:30:01;1.2;;;0.4;;
73421;SDS011;61637;47.760;-122.022;2024-03-02T00:32:02;2.7;;;0.6;;
73421;SDS011;61637;47.760;-122.022;2024-03-02T00:34:06;1.5;;;0.5;;
73421;SDS011;61637;47.760;-122.022;2024-03-02T00:36:01;2.0;;;0.5;;
73421;SDS011;61637;47.760;-122.022;2024-03-02T00:38:04;2.4;;;0.5;;
73421;SDS011;61637;47.760;-122.022;2024-03-02T00:40:00;1.3;;;0.5;;
73421;SDS011;61637;47.760;-122.022;2024-03-02T00:42:01;2.3;;;0.6;;
73421;SDS011;61637;47.760;-122.022;2024-03-02T00:44:02;1.5;;;0.5;;
73421;SDS011;61637;47.760;-122.022;2024-03-02T00:46:01;1.4;;;0.5;;
73421;SDS011;61637;47.760;-122.022;2024-03-02T00:48:00;1.5;;;0.5;;
73421;SDS011;61637;47.760;-122.022;2024-03-02T00:50:00;2.0;;;0.5;;
73421;SDS011;61637;47.760;-122.022;2024-03-02T00:52:00;1.2;;;0.5;;
73421;SDS011;61637;47.760;-122.022;2024-03-02T00:54:03;2.2;;;0.5;;
73421;SDS011;61637;47.760;-122.022;2024-03-02T00:56:01;1.3;;;0.5;;
73421;SDS011;61637;47.760;-122.022;2024-03-02T00:58:00;1.7;;;0.4;;
73421;SDS011;61637;47.760;-122.022;2024-03-02T01:00:01;1.4;;;0.5;;
73421;SDS011;61637;47.760;-122.022;2024-03-02T01:02:00;0.9;;;0.4;;
73421;SDS011;61637;47.760;-122.022;2024-03-02T01:04:00;2.2;;;0.5;;
73421;SDS011;61637;47.760;-122.022;2024-03-02T01:06:01;1.1;;;0.5;;
73421;SDS011;61637;47.760;-122.022;2024-03-02T01:08:00;0.9;;;0.4;;
73421;SDS011;61637;47.760;-122.022;2024-03-02T01:10:00;1.5;;;0.5;;
73421;SDS011;61637;47.760;-122.022;2024-03-02T01:12:00;2.8;;;0.7;;
73421;SDS011;61637;47.760;-122.022;2024-03-02T01:14:01;1.5;;;0.4;;
73421;SDS011;61637;47.760;-122.022;2024-03-02T01:16:01;1.9;;;0.5;;
73421;SDS011;61637;47.760;-122.022;2024-03-02T01:18:01;0.9;;;0.4;;
73421;SDS011;61637;47.760;-122.022;2024-03-02T01:20:00;1.5;;;0.5;;
73421;SDS011;61637;47.760;-122.022;2024-03-02T01:22:00;1.5;;;0.5;;
73421;SDS011;61637;47.760;-122.022;2024-03-02T01:24:00;1.9;;;0.6;;
73421;SDS011;61637;47.760;-122.022;2024-03-02T01:26:01;2.8;;;0.6;;
73421;SDS011;61637;47.760;-122.022;2024-03-02T01:28:00;1.7;;;0.5;;
73421;SDS011;61637;47.760;-122.022;2024-03-02T01:30:01;1.7;;;0.5;;
73421;SDS011;61637;47.760;-122.022;2024-03-02T01:32:00;1.6;;;0.5;;
73421;SDS011;61637;47.760;-122.022;2024-03-02T01:34:00;2.1;;;0.8;;
73421;SDS011;61637;47.760;-122.022;2024-03-02T01:36:01;2.6;;;1.0;;
73421;SDS011;61637;47.760;-122.022;2024-03-02T01:38:01;2.1;;;0.7;;
73421;SDS011;61637;47.760;-122.022;2024-03-02T01:40:01;1.7;;;0.6;;
73421;SDS011;61637;47.760;-122.022;2024-03-02T01:42:01;2.4;;;1.0;;
73421;SDS011;61637;47.760;-122.022;2024-03-02T01:44:00;2.1;;;0.7;;
73421;SDS011;61637;47.760;-122.022;2024-03-02T01:46:00;1.9;;;0.7;;
73421;SDS011;61637;47.760;-122.022;2024-03-02T01:48:01;1.7;;;0.5;;
73421;SDS011;61637;47.760;-122.022;2024-03-02T01:50:01;2.8;;;0.7;;
73421;SDS011;61637;47.760;-122.022;2024-03-02T01:52:01;1.5;;;0.6;;
73421;SDS011;61637;47.760;-122.022;2024-03-02T01:54:01;3.1;;;0.7;;
73421;SDS011;61637;47.760;-122.022;2024-03-02T01:56:00;1.9;;;0.7;;
73421;SDS011;61637;47.760;-122.022;2024-03-02T01:58:01;2.4;;;1.1;;
73421;SDS011;61637;47.760;-122.022;2024-03-02T02:00:01;6.4;;;3.3;;
73421;SDS011;61637;47.760;-122.022;2024-03-02T02:02:00;5.7;;;4.8;;
73421;SDS011;61637;47.760;-122.022;2024-03-02T02:04:00;5.6;;;4.7;;
73421;SDS011;61637;47.760;-122.022;2024-03-02T02:06:01;5.6;;;4.7;;
73421;SDS011;61637;47.760;-122.022;2024-03-02T02:08:01;5.4;;;3.7;;
73421;SDS011;61637;47.760;-122.022;2024-03-02T02:10:00;6.5;;;4.3;;
73421;SDS011;61637;47.760;-122.022;2024-03-02T02:12:01;8.9;;;8.0;;
73421;SDS011;61637;47.760;-122.022;2024-03-02T02:14:01;7.5;;;6.5;;
73421;SDS011;61637;47.760;-122.022;2024-03-02T02:16:04;8.6;;;7.8;;
73421;SDS011;61637;47.760;-122.022;2024-03-02T02:18:01;8.6;;;7.8;;
73421;SDS011;61637;47.760;-122.022;2024-03-02T02:20:00;8.3;;;7.5;;
73421;SDS011;61637;47.760;-122.022;2024-03-02T02:22:01;7.8;;;7.1;;
73421;SDS011;61637;47.760;-122.022;2024-03-02T02:24:01;10.2;;;9.3;;
73421;SDS011;61637;47.760;-122.022;2024-03-02T02:26:00;12.4;;;11.3;;
73421;SDS011;61637;47.760;-122.022;2024-03-02T02:28:01;13.3;;;12.2;;
73421;SDS011;61637;47.760;-122.022;2024-03-02T02:30:01;13.6;;;12.5;;
73421;SDS011;61637;47.760;-122.022;2024-03-02T02:32:00;13.2;;;12.1;;
73421;SDS011;61637;47.760;-122.022;2024-03-02T02:34:01;13.9;;;12.8;;
73421;SDS011;61637;47.760;-122.022;2024-03-02T02:36:00;13.9;;;12.8;;
73421;SDS011;61637;47.760;-122.022;2024-03-02T02:38:02;14.3;;;13.1;;
73421;SDS011;61637;47.760;-122.022;2024-03-02T02:40:01;13.9;;;12.8;;
73421;SDS011;61637;47.760;-122.022;2024-03-02T02:42:01;14.1;;;13.0;;
73421;SDS011;61637;47.760;-122.022;2024-03-02T02:44:00;14.2;;;13.0;;
73421;SDS011;61637;47.760;-122.022;2024-03-02T02:46:01;13.7;;;12.5;;
73421;SDS011;61637;47.760;-122.022;2024-03-02T02:48:00;13.2;;;12.1;;
73421;SDS011;61637;47.760;-122.022;2024-03-02T02:50:01;13.6;;;12.5;;
73421;SDS011;61637;47.760;-122.022;2024-03-02T02:52:01;13.7;;;12.6;;
73421;SDS011;61637;47.760;-122.022;2024-03-02T02:54:01;13.7;;;12.5;;
73421;SDS011;61637;47.760;-122.022;2024-03-02T02:56:00;14.5;;;13.3;;
73421;SDS011;61637;47.760;-122.022;2024-03-02T02:58:00;13.8;;;12.7;;
73421;SDS011;61637;47.760;-122.022;2024-03-02T03:00:02;14.7;;;13.5;;
73421;SDS011;61637;47.760;-122.022;2024-03-02T03:02:00;14.7;;;13.5;;
73421;SDS011;61637;47.760;-122.022;2024-03-02T03:04:00;14.5;;;13.2;;
73421;SDS011;61637;47.760;-122.022;2024-03-02T03:06:01;14.6;;;13.4;;
73421;SDS011;61637;47.760;-122.022;2024-03-02T03:08:00;14.3;;;13.2;;
73421;SDS011;61637;47.760;-122.022;2024-03-02T03:10:01;15.0;;;13.7;;
73421;SDS011;61637;47.760;-122.022;2024-03-02T03:12:00;15.3;;;14.1;;
73421;SDS011;61637;47.760;-122.022;2024-03-02T03:14:00;15.6;;;14.3;;
73421;SDS011;61637;47.760;-122.022;2024-03-02T03:16:00;16.6;;;15.2;;
73421;SDS011;61637;47.760;-122.022;2024-03-02T03:18:01;15.9;;;14.6;;
73421;SDS011;61637;47.760;-122.022;2024-03-02T03:20:01;17.1;;;15.6;;
73421;SDS011;61637;47.760;-122.022;2024-03-02T03:22:00;17.6;;;16.1;;
73421;SDS011;61637;47.760;-122.022;2024-03-02T03:24:00;17.2;;;15.8;;
73421;SDS011;61637;47.760;-122.022;2024-03-02T03:26:00;17.2;;;15.8;;
73421;SDS011;61637;47.760;-122.022;2024-03-02T03:28:00;17.3;;;15.9;;
73421;SDS011;61637;47.760;-122.022;2024-03-02T03:30:01;19.2;;;17.6;;
73421;SDS011;61637;47.760;-122.022;2024-03-02T03:32:01;26.8;;;24.5;;
73421;SDS011;61637;47.760;-122.022;2024-03-02T03:34:01;30.5;;;27.6;;
73421;SDS011;61637;47.760;-122.022;2024-03-02T03:36:00;42.7;;;36.9;;
73421;SDS011;61637;47.760;-122.022;2024-03-02T03:38:00;51.0;;;40.6;;
73421;SDS011;61637;47.760;-122.022;2024-03-02T03:40:01;50.0;;;41.1;;
73421;SDS011;61637;47.760;-122.022;2024-03-02T03:42:01;50.3;;;40.8;;
73421;SDS011;61637;47.760;-122.022;2024-03-02T03:44:00;57.0;;;45.0;;
73421;SDS011;61637;47.760;-122.022;2024-03-02T03:46:00;34.1;;;30.4;;
73421;SDS011;61637;47.760;-122.022;2024-03-02T03:48:00;32.2;;;28.8;;
73421;SDS011;61637;47.760;-122.022;2024-03-02T03:50:00;29.7;;;26.8;;
73421;SDS011;61637;47.760;-122.022;2024-03-02T03:52:00;26.0;;;23.5;;
73421;SDS011;61637;47.760;-122.022;2024-03-02T03:54:01;22.3;;;20.4;;
73421;SDS011;61637;47.760;-122.022;2024-03-02T03:56:00;22.2;;;20.4;;
73421;SDS011;61637;47.760;-122.022;2024-03-02T03:58:00;18.4;;;16.7;;
73421;SDS011;61637;47.760;-122.022;2024-03-02T04:00:01;18.0;;;16.4;;
73421;SDS011;61637;47.760;-122.022;2024-03-02T04:02:00;17.6;;;16.2;;
73421;SDS011;61637;47.760;-122.022;2024-03-02T04:04:01;16.8;;;15.4;;
73421;SDS011;61637;47.760;-122.022;2024-03-02T04:06:01;16.9;;;15.5;;
73421;SDS011;61637;47.760;-122.022;2024-03-02T04:08:00;16.0;;;14.7;;
73421;SDS011;61637;47.760;-122.022;2024-03-02T04:10:00;15.7;;;14.4;;
73421;SDS011;61637;47.760;-122.022;2024-03-02T04:12:00;15.9;;;14.6;;
73421;SDS011;61637;47.760;-122.022;2024-03-02T04:14:00;16.1;;;14.8;;
73421;SDS011;61637;47.760;-122.022;2024-03-02T04:16:00;16.7;;;15.2;;
73421;SDS011;61637;47.760;-122.022;2024-03-02T04:18:01;17.4;;;15.8;;
73421;SDS011;61637;47.760;-122.022;2024-03-02T04:20:02;19.1;;;17.4;;
73421;SDS011;61637;47.760;-122.022;2024-03-02T04:22:00;18.0;;;16.5;;
73421;SDS011;61637;47.760;-122.022;2024-03-02T04:24:00;17.4;;;15.8;;
73421;SDS011;61637;47.760;-122.022;2024-03-02T04:26:00;17.4;;;15.9;;
73421;SDS011;61637;47.760;-122.022;2024-03-02T04:28:00;17.0;;;15.5;;
73421;SDS011;61637;47.760;-122.022;2024-03-02T04:30:01;16.8;;;15.4;;
73421;SDS011;61637;47.760;-122.022;2024-03-02T04:32:00;17.6;;;16.1;;
73421;SDS011;61637;47.760;-122.022;2024-03-02T04:34:01;17.3;;;15.7;;
73421;SDS011;61637;47.760;-122.022;2024-03-02T04:36:00;17.6;;;16.1;;
73421;SDS011;61637;47.760;-122.022;2024-03-02T04:38:00;17.8;;;16.1;;
73421;SDS011;61637;47.760;-122.022;2024-03-02T04:40:01;18.1;;;16.4;;
73421;SDS011;61637;47.760;-122.022;2024-03-02T04:42:03;18.3;;;16.8;;
73421;SDS011;61637;47.760;-122.022;2024-03-02T04:44:00;16.6;;;15.2;;
73421;SDS011;61637;47.760;-122.022;2024-03-02T04:46:01;17.3;;;15.8;;
73421;SDS011;61637;47.760;-122.022;2024-03-02T04:48:00;16.6;;;15.2;;
73421;SDS011;61637;47.760;-122.022;2024-03-02T04:50:01;15.8;;;14.5;;
73421;SDS011;61637;47.760;-122.022;2024-03-02T04:52:00;16.8;;;15.4;;
73421;SDS011;61637;47.760;-122.022;2024-03-02T04:54:01;16.1;;;14.8;;
73421;SDS011;61637;47.760;-122.022;2024-03-02T04:56:00;17.8;;;16.4;;
73421;SDS011;61637;47.760;-122.022;2024-03-02T04:58:00;17.6;;;16.1;;
73421;SDS011;61637;47.760;-122.022;2024-03-02T05:00:01;17.3;;;15.9;;
73421;SDS011;61637;47.760;-122.022;2024-03-02T05:02:00;17.1;;;15.6;;
73421;SDS011;61637;47.760;-122.022;2024-03-02T05:04:01;16.7;;;15.3;;
73421;SDS011;61637;47.760;-122.022;2024-03-02T05:06:01;17.6;;;16.1;;
73421;SDS011;61637;47.760;-122.022;2024-03-02T05:08:00;18.0;;;16.3;;
73421;SDS011;61637;47.760;-122.022;2024-03-02T05:10:01;16.6;;;15.2;;
73421;SDS011;61637;47.760;-122.022;2024-03-02T05:12:00;17.4;;;15.9;;
73421;SDS011;61637;47.760;-122.022;2024-03-02T05:14:00;16.5;;;15.1;;
73421;SDS011;61637;47.760;-122.022;2024-03-02T05:16:00;16.5;;;15.1;;
73421;SDS011;61637;47.760;-122.022;2024-03-02T05:18:01;15.9;;;14.6;;
73421;SDS011;61637;47.760;-122.022;2024-03-02T05:20:00;16.5;;;15.0;;
73421;SDS011;61637;47.760;-122.022;2024-03-02T05:22:00;17.1;;;15.7;;
73421;SDS011;61637;47.760;-122.022;2024-03-02T05:24:01;17.3;;;15.8;;
73421;SDS011;61637;47.760;-122.022;2024-03-02T05:26:00;17.1;;;15.5;;
73421;SDS011;61637;47.760;-122.022;2024-03-02T05:28:00;17.1;;;15.6;;
73421;SDS011;61637;47.760;-122.022;2024-03-02T05:30:01;16.3;;;14.9;;
73421;SDS011;61637;47.760;-122.022;2024-03-02T05:32:00;16.9;;;15.4;;
73421;SDS011;61637;47.760;-122.022;2024-03-02T05:34:00;16.8;;;15.4;;
73421;SDS011;61637;47.760;-122.022;2024-03-02T05:36:01;16.0;;;14.5;;
73421;SDS011;61637;47.760;-122.022;2024-03-02T05:38:00;16.0;;;14.6;;
73421;SDS011;61637;47.760;-122.022;2024-03-02T05:40:00;16.2;;;14.8;;
73421;SDS011;61637;47.760;-122.022;2024-03-02T05:42:01;15.9;;;14.5;;
73421;SDS011;61637;47.760;-122.022;2024-03-02T05:44:00;15.7;;;14.3;;
73421;SDS011;61637;47.760;-122.022;2024-03-02T05:46:01;16.7;;;15.2;;
73421;SDS011;61637;47.760;-122.022;2024-03-02T05:48:00;16.0;;;14.6;;
73421;SDS011;61637;47.760;-122.022;2024-03-02T05:50:01;16.3;;;14.9;;
73421;SDS011;61637;47.760;-122.022;2024-03-02T05:52:00;17.3;;;15.6;;
73421;SDS011;61637;47.760;-122.022;2024-03-02T05:54:01;17.2;;;15.7;;
73421;SDS011;61637;47.760;-122.022;2024-03-02T05:56:00;16.4;;;15.0;;
73421;SDS011;61637;47.760;-122.022;2024-03-02T05:58:00;17.6;;;16.1;;
73421;SDS011;61637;47.760;-122.022;2024-03-02T06:00:00;17.4;;;15.9;;
73421;SDS011;61637;47.760;-122.022;2024-03-02T06:02:00;17.4;;;15.9;;
73421;SDS011;61637;47.760;-122.022;2024-03-02T06:04:01;18.0;;;16.4;;
73421;SDS011;61637;47.760;-122.022;2024-03-02T06:06:01;18.5;;;16.9;;
73421;SDS011;61637;47.760;-122.022;2024-03-02T06:08:01;17.3;;;15.8;;
73421;SDS011;61637;47.760;-122.022;2024-03-02T06:10:01;16.7;;;15.2;;
73421;SDS011;61637;47.760;-122.022;2024-03-02T06:12:00;16.9;;;15.4;;
73421;SDS011;61637;47.760;-122.022;2024-03-02T06:14:00;17.1;;;15.6;;
73421;SDS011;61637;47.760;-122.022;2024-03-02T06:16:00;17.3;;;15.8;;
73421;SDS011;61637;47.760;-122.022;2024-03-02T06:18:01;17.6;;;16.1;;
73421;SDS011;61637;47.760;-122.022;2024-03-02T06:20:01;17.8;;;16.3;;
73421;SDS011;61637;47.760;-122.022;2024-03-02T06:22:01;17.9;;;16.3;;
73421;SDS011;61637;47.760;-122.022;2024-03-02T06:24:00;17.6;;;16.1;;
73421;SDS011;61637;47.760;-122.022;2024-03-02T06:26:01;17.8;;;16.3;;
73421;SDS011;61637;47.760;-122.022;2024-03-02T06:28:00;19.1;;;17.3;;
73421;SDS011;61637;47.760;-122.022;2024-03-02T06:30:01;17.1;;;15.7;;
73421;SDS011;61637;47.760;-122.022;2024-03-02T06:32:00;17.5;;;16.0;;
73421;SDS011;61637;47.760;-122.022;2024-03-02T06:34:00;18.2;;;16.5;;
73421;SDS011;61637;47.760;-122.022;2024-03-02T06:36:00;18.6;;;17.0;;
73421;SDS011;61637;47.760;-122.022;2024-03-02T06:38:01;17.2;;;15.7;;
73421;SDS011;61637;47.760;-122.022;2024-03-02T06:40:01;17.0;;;15.5;;
73421;SDS011;61637;47.760;-122.022;2024-03-02T06:42:01;16.3;;;14.9;;
73421;SDS011;61637;47.760;-122.022;2024-03-02T06:44:01;17.9;;;16.2;;
73421;SDS011;61637;47.760;-122.022;2024-03-02T06:46:00;16.7;;;15.3;;
73421;SDS011;61637;47.760;-122.022;2024-03-02T06:48:00;16.7;;;15.3;;
73421;SDS011;61637;47.760;-122.022;2024-03-02T06:50:00;16.5;;;15.1;;
73421;SDS011;61637;47.760;-122.022;2024-03-02T06:52:00;17.9;;;16.2;;
73421;SDS011;61637;47.760;-122.022;2024-03-02T06:54:01;17.7;;;16.2;;
73421;SDS011;61637;47.760;-122.022;2024-03-02T06:56:01;17.5;;;16.0;;
73421;SDS011;61637;47.760;-122.022;2024-03-02T06:58:00;17.4;;;16.0;;
73421;SDS011;61637;47.760;-122.022;2024-03-02T07:00:00;17.5;;;15.9;;
73421;SDS011;61637;47.760;-122.022;2024-03-02T07:02:00;18.4;;;16.9;;
73421;SDS011;61637;47.760;-122.022;2024-03-02T07:04:00;18.2;;;16.6;;
73421;SDS011;61637;47.760;-122.022;2024-03-02T07:06:00;17.0;;;15.6;;
73421;SDS011;61637;47.760;-122.022;2024-03-02T07:08:01;16.3;;;14.9;;
73421;SDS011;61637;47.760;-122.022;2024-03-02T07:10:01;16.7;;;15.3;;
73421;SDS011;61637;47.760;-122.022;2024-03-02T07:12:01;15.4;;;14.1;;
73421;SDS011;61637;47.760;-122.022;2024-03-02T07:14:00;16.5;;;15.2;;
73421;SDS011;61637;47.760;-122.022;2024-03-02T07:16:00;15.8;;;14.5;;
73421;SDS011;61637;47.760;-122.022;2024-03-02T07:18:00;15.7;;;14.4;;
73421;SDS011;61637;47.760;-122.022;2024-03-02T07:20:00;14.5;;;13.3;;
73421;SDS011;61637;47.760;-122.022;2024-03-02T07:22:01;15.1;;;13.9;;
73421;SDS011;61637;47.760;-122.022;2024-03-02T07:24:01;14.8;;;13.5;;
73421;SDS011;61637;47.760;-122.022;2024-03-02T07:26:00;14.7;;;13.5;;
73421;SDS011;61637;47.760;-122.022;2024-03-02T07:28:00;15.6;;;14.3;;
73421;SDS011;61637;47.760;-122.022;2024-03-02T07:30:00;15.7;;;14.4;;
73421;SDS011;61637;47.760;-122.022;2024-03-02T07:32:01;16.0;;;14.7;;
73421;SDS011;61637;47.760;-122.022;2024-03-02T07:34:00;15.6;;;14.0;;
73421;SDS011;61637;47.760;-122.022;2024-03-02T07:36:01;15.6;;;14.3;;
73421;SDS011;61637;47.760;-122.022;2024-03-02T07:38:00;15.9;;;14.6;;
73421;SDS011;61637;47.760;-122.022;2024-03-02T07:40:00;15.5;;;14.2;;
73421;SDS011;61637;47.760;-122.022;2024-03-02T07:42:01;15.9;;;14.6;;
73421;SDS011;61637;47.760;-122.022;2024-03-02T07:44:00;16.5;;;15.1;;
73421;SDS011;61637;47.760;-122.022;2024-03-02T07:46:01;15.6;;;14.4;;
73421;SDS011;61637;47.760;-122.022;2024-03-02T07:48:01;16.0;;;14.8;;
73421;SDS011;61637;47.760;-122.022;2024-03-02T07:50:01;15.8;;;14.6;;
73421;SDS011;61637;47.760;-122.022;2024-03-02T07:52:00;15.0;;;13.8;;
73421;SDS011;61637;47.760;-122.022;2024-03-02T07:54:00;14.3;;;13.2;;
73421;SDS011;61637;47.760;-122.022;2024-03-02T07:56:01;14.4;;;13.2;;
73421;SDS011;61637;47.760;-122.022;2024-03-02T07:58:01;15.3;;;14.1;;
73421;SDS011;61637;47.760;-122.022;2024-03-02T08:00:01;14.8;;;13.6;;
73421;SDS011;61637;47.760;-122.022;2024-03-02T08:02:00;14.5;;;13.3;;
73421;SDS011;61637;47.760;-122.022;2024-03-02T08:04:02;14.4;;;13.2;;
73421;SDS011;61637;47.760;-122.022;2024-03-02T08:06:00;15.0;;;13.8;;
73421;SDS011;61637;47.760;-122.022;2024-03-02T08:08:00;14.9;;;13.7;;
73421;SDS011;61637;47.760;-122.022;2024-03-02T08:10:00;14.9;;;13.7;;
73421;SDS011;61637;47.760;-122.022;2024-03-02T08:12:01;14.9;;;13.7;;
73421;SDS011;61637;47.760;-122.022;2024-03-02T08:14:01;14.8;;;13.5;;
73421;SDS011;61637;47.760;-122.022;2024-03-02T08:16:01;14.7;;;13.4;;
73421;SDS011;61637;47.760;-122.022;2024-03-02T08:18:01;14.9;;;13.7;;
73421;SDS011;61637;47.760;-122.022;2024-03-02T08:20:01;14.7;;;13.5;;
73421;SDS011;61637;47.760;-122.022;2024-03-02T08:22:01;14.5;;;13.3;;
73421;SDS011;61637;47.760;-122.022;2024-03-02T08:24:02;14.8;;;13.4;;
73421;SDS011;61637;47.760;-122.022;2024-03-02T08:26:00;14.5;;;13.3;;
73421;SDS011;61637;47.760;-122.022;2024-03-02T08:28:00;14.5;;;13.3;;
73421;SDS011;61637;47.760;-122.022;2024-03-02T08:30:00;15.2;;;14.0;;
73421;SDS011;61637;47.760;-122.022;2024-03-02T08:32:00;15.2;;;13.9;;
73421;SDS011;61637;47.760;-122.022;2024-03-02T08:34:00;16.3;;;15.0;;
73421;SDS011;61637;47.760;-122.022;2024-03-02T08:36:01;18.0;;;16.4;;
73421;SDS011;61637;47.760;-122.022;2024-03-02T08:38:00;17.2;;;15.6;;
73421;SDS011;61637;47.760;-122.022;2024-03-02T08:40:00;16.8;;;15.4;;
73421;SDS011;61637;47.760;-122.022;2024-03-02T08:42:00;18.2;;;16.4;;
73421;SDS011;61637;47.760;-122.022;2024-03-02T08:44:01;16.5;;;15.1;;
73421;SDS011;61637;47.760;-122.022;2024-03-02T08:46:01;17.1;;;15.6;;
73421;SDS011;61637;47.760;-122.022;2024-03-02T08:48:01;17.5;;;16.0;;
73421;SDS011;61637;47.760;-122.022;2024-03-02T08:50:00;17.2;;;15.7;;
73421;SDS011;61637;47.760;-122.022;2024-03-02T08:52:00;16.9;;;15.4;;
73421;SDS011;61637;47.760;-122.022;2024-03-02T08:54:01;16.3;;;14.9;;
73421;SDS011;61637;47.760;-122.022;2024-03-02T08:56:00;16.9;;;15.5;;
73421;SDS011;61637;47.760;-122.022;2024-03-02T08:58:01;17.9;;;16.4;;
73421;SDS011;61637;47.760;-122.022;2024-03-02T09:00:01;16.5;;;15.0;;
73421;SDS011;61637;47.760;-122.022;2024-03-02T09:02:01;16.2;;;14.9;;
73421;SDS011;61637;47.760;-122.022;2024-03-02T09:04:00;17.7;;;16.1;;
73421;SDS011;61637;47.760;-122.022;2024-03-02T09:06:00;15.5;;;14.2;;
73421;SDS011;61637;47.760;-122.022;2024-03-02T09:08:00;16.9;;;15.4;;
73421;SDS011;61637;47.760;-122.022;2024-03-02T09:10:00;15.7;;;14.4;;
73421;SDS011;61637;47.760;-122.022;2024-03-02T09:12:01;15.1;;;13.8;;
73421;SDS011;61637;47.760;-122.022;2024-03-02T09:14:01;15.2;;;14.0;;
73421;SDS011;61637;47.760;-122.022;2024-03-02T09:16:00;16.0;;;14.7;;
73421;SDS011;61637;47.760;-122.022;2024-03-02T09:18:00;16.1;;;14.8;;
73421;SDS011;61637;47.760;-122.022;2024-03-02T09:20:00;14.9;;;13.7;;
73421;SDS011;61637;47.760;-122.022;2024-03-02T09:22:00;15.5;;;14.3;;
73421;SDS011;61637;47.760;-122.022;2024-03-02T09:24:01;15.1;;;13.8;;
73421;SDS011;61637;47.760;-122.022;2024-03-02T09:26:00;14.3;;;13.1;;
73421;SDS011;61637;47.760;-122.022;2024-03-02T09:28:00;15.5;;;14.3;;
73421;SDS011;61637;47.760;-122.022;2024-03-02T09:30:00;15.0;;;13.8;;
73421;SDS011;61637;47.760;-122.022;2024-03-02T09:32:00;15.0;;;13.8;;
73421;SDS011;61637;47.760;-122.022;2024-03-02T09:34:00;14.9;;;13.7;;
73421;SDS011;61637;47.760;-122.022;2024-03-02T09:36:00;14.9;;;13.7;;
73421;SDS011;61637;47.760;-122.022;2024-03-02T09:38:00;15.0;;;13.8;;
73421;SDS011;61637;47.760;-122.022;2024-03-02T09:40:01;14.2;;;13.0;;
73421;SDS011;61637;47.760;-122.022;2024-03-02T09:42:01;13.9;;;12.7;;
73421;SDS011;61637;47.760;-122.022;2024-03-02T09:44:01;13.2;;;12.1;;
73421;SDS011;61637;47.760;-122.022;2024-03-02T09:46:01;14.1;;;12.9;;
73421;SDS011;61637;47.760;-122.022;2024-03-02T09:48:01;15.1;;;13.8;;
73421;SDS011;61637;47.760;-122.022;2024-03-02T09:50:00;14.1;;;13.0;;
73421;SDS011;61637;47.760;-122.022;2024-03-02T09:52:01;15.0;;;13.8;;
73421;SDS011;61637;47.760;-122.022;2024-03-02T09:54:01;14.4;;;13.2;;
73421;SDS011;61637;47.760;-122.022;2024-03-02T09:56:01;14.3;;;13.1;;
73421;SDS011;61637;47.760;-122.022;2024-03-02T09:58:01;14.2;;;13.1;;
73421;SDS011;61637;47.760;-122.022;2024-03-02T10:00:01;14.4;;;13.2;;
73421;SDS011;61637;47.760;-122.022;2024-03-02T10:02:02;14.3;;;13.2;;
73421;SDS011;61637;47.760;-122.022;2024-03-02T10:04:01;14.2;;;13.1;;
73421;SDS011;61637;47.760;-122.022;2024-03-02T10:08:02;13.7;;;12.4;;
73421;SDS011;61637;47.760;-122.022;2024-03-02T10:12:04;13.7;;;12.5;;
73421;SDS011;61637;47.760;-122.022;2024-03-02T10:14:05;13.4;;;12.3;;
73421;SDS011;61637;47.760;-122.022;2024-03-02T10:18:00;13.6;;;12.5;;
73421;SDS011;61637;47.760;-122.022;2024-03-02T10:22:02;12.4;;;11.4;;
73421;SDS011;61637;47.760;-122.022;2024-03-02T10:24:07;13.3;;;12.2;;
73421;SDS011;61637;47.760;-122.022;2024-03-02T10:26:00;13.3;;;12.2;;
73421;SDS011;61637;47.760;-122.022;2024-03-02T10:28:01;13.1;;;12.0;;
73421;SDS011;61637;47.760;-122.022;2024-03-02T10:30:03;13.3;;;12.2;;
73421;SDS011;61637;47.760;-122.022;2024-03-02T10:32:02;13.2;;;12.1;;
73421;SDS011;61637;47.760;-122.022;2024-03-02T10:34:01;13.3;;;12.1;;
73421;SDS011;61637;47.760;-122.022;2024-03-02T10:36:00;13.7;;;12.6;;
73421;SDS011;61637;47.760;-122.022;2024-03-02T10:38:01;13.4;;;12.3;;
73421;SDS011;61637;47.760;-122.022;2024-03-02T10:40:05;13.5;;;12.3;;
73421;SDS011;61637;47.760;-122.022;2024-03-02T10:42:02;13.1;;;12.0;;
73421;SDS011;61637;47.760;-122.022;2024-03-02T10:44:03;13.5;;;12.3;;
73421;SDS011;61637;47.760;-122.022;2024-03-02T10:46:01;12.7;;;11.7;;
73421;SDS011;61637;47.760;-122.022;2024-03-02T10:48:02;13.5;;;12.4;;
73421;SDS011;61637;47.760;-122.022;2024-03-02T10:50:00;13.2;;;12.1;;
73421;SDS011;61637;47.760;-122.022;2024-03-02T10:52:01;13.4;;;12.2;;
73421;SDS011;61637;47.760;-122.022;2024-03-02T10:54:01;13.3;;;12.2;;
73421;SDS011;61637;47.760;-122.022;2024-03-02T10:56:01;13.0;;;11.9;;
73421;SDS011;61637;47.760;-122.022;2024-03-02T10:58:04;12.5;;;11.5;;
73421;SDS011;61637;47.760;-122.022;2024-03-02T11:02:03;12.6;;;11.4;;
73421;SDS011;61637;47.760;-122.022;2024-03-02T11:04:02;12.6;;;11.4;;
73421;SDS011;61637;47.760;-122.022;2024-03-02T11:06:02;12.4;;;11.4;;
73421;SDS011;61637;47.760;-122.022;2024-03-02T11:08:07;12.8;;;11.7;;
73421;SDS011;61637;47.760;-122.022;2024-03-02T11:10:01;12.3;;;11.3;;
73421;SDS011;61637;47.760;-122.022;2024-03-02T11:12:03;12.6;;;11.5;;
73421;SDS011;61637;47.760;-122.022;2024-03-02T11:14:01;12.8;;;11.7;;
73421;SDS011;61637;47.760;-122.022;2024-03-02T11:16:05;12.6;;;11.6;;
73421;SDS011;61637;47.760;-122.022;2024-03-02T11:18:04;13.0;;;11.9;;
73421;SDS011;61637;47.760;-122.022;2024-03-02T11:20:02;13.1;;;12.0;;
73421;SDS011;61637;47.760;-122.022;2024-03-02T11:22:03;13.6;;;12.5;;
73421;SDS011;61637;47.760;-122.022;2024-03-02T11:24:00;13.3;;;12.2;;
73421;SDS011;61637;47.760;-122.022;2024-03-02T11:28:04;13.7;;;12.6;;
73421;SDS011;61637;47.760;-122.022;2024-03-02T11:30:00;13.2;;;12.1;;
73421;SDS011;61637;47.760;-122.022;2024-03-02T11:32:02;12.7;;;11.7;;
73421;SDS011;61637;47.760;-122.022;2024-03-02T11:36:01;13.2;;;12.1;;
73421;SDS011;61637;47.760;-122.022;2024-03-02T11:38:01;12.2;;;11.2;;
73421;SDS011;61637;47.760;-122.022;2024-03-02T11:40:00;12.0;;;10.9;;
73421;SDS011;61637;47.760;-122.022;2024-03-02T11:42:00;9.8;;;8.9;;
73421;SDS011;61637;47.760;-122.022;2024-03-02T11:44:04;8.7;;;7.9;;
73421;SDS011;61637;47.760;-122.022;2024-03-02T11:46:03;8.6;;;7.8;;
73421;SDS011;61637;47.760;-122.022;2024-03-02T11:48:01;8.9;;;8.1;;